Time;durP1;ratioP1;P1;durP2;ratioP2;P2;SDS_P1;SDS_P2;PMS_P1;PMS_P2;Temp;Humidity;BMP_temperature;BMP_pressure;BME280_temperature;BME280_humidity;BME280_pressure;Samples;Min_cycle;Max_cycle;Signal;HPM_P1;HPM_P2
2023/03/26 00:01:20;;;;;;;19.47;8.70;;;9.10;99.90;;;;;;5041772;28;20278;-69
2023/03/26 00:03:52;;;;;;;17.07;7.77;;;9.10;99.90;;;;;;5044734;28;20228;-68
2023/03/26 00:06:21;;;;;;;14.80;6.70;;;9.10;99.90;;;;;;5022896;28;21002;-69
2023/03/26 00:08:48;;;;;;;6.63;4.00;;;9.10;99.90;;;;;;5052733;28;20517;-69
2023/03/26 00:11:15;;;;;;;17.07;7.57;;;9.10;99.90;;;;;;5029546;28;20866;-69
2023/03/26 00:13:42;;;;;;;11.70;5.87;;;9.10;99.90;;;;;;5023313;28;20525;-68
2023/03/26 00:16:14;;;;;;;9.93;5.00;;;9.10;99.90;;;;;;5029477;28;20466;-70
2023/03/26 00:18:41;;;;;;;10.80;4.67;;;9.10;99.90;;;;;;5039275;28;20476;-69
2023/03/26 00:21:08;;;;;;;6.53;3.03;;;9.10;99.90;;;;;;5037287;28;20463;-69
2023/03/26 00:23:34;;;;;;;5.70;2.97;;;9.10;99.90;;;;;;5000388;28;20474;-69
2023/03/26 00:26:02;;;;;;;7.40;2.40;;;9.10;99.90;;;;;;5026030;28;20437;-68
2023/03/26 00:28:29;;;;;;;6.77;2.27;;;9.10;99.90;;;;;;5044140;28;20491;-70
2023/03/26 00:31:01;;;;;;;10.90;6.20;;;9.10;99.90;;;;;;5027541;28;20443;-71
2023/03/26 00:33:27;;;;;;;9.30;6.37;;;9.10;99.90;;;;;;5015388;28;20447;-69
2023/03/26 00:35:55;;;;;;;7.60;3.57;;;9.00;99.90;;;;;;5005510;28;20463;-69
2023/03/26 00:38:22;;;;;;;6.43;4.17;;;9.00;99.90;;;;;;5052413;28;20460;-68
2023/03/26 00:40:51;;;;;;;5.90;3.30;;;8.80;99.90;;;;;;5057981;28;20473;-69
2023/03/26 00:43:19;;;;;;;3.10;2.03;;;8.80;99.90;;;;;;5022906;28;20451;-70
2023/03/26 00:45:53;;;;;;;4.30;1.27;;;8.80;99.90;;;;;;5038910;28;20470;-70
2023/03/26 00:48:20;;;;;;;2.30;1.40;;;8.70;99.90;;;;;;5026577;28;20465;-68
2023/03/26 00:50:48;;;;;;;3.60;1.50;;;8.60;99.90;;;;;;5025053;28;20478;-69
2023/03/26 00:53:15;;;;;;;0.93;0.90;;;8.60;99.90;;;;;;5015429;28;20451;-70
2023/03/26 00:55:42;;;;;;;1.63;0.93;;;8.70;99.90;;;;;;5010354;28;20459;-69
2023/03/26 00:58:09;;;;;;;1.63;1.20;;;8.60;99.90;;;;;;5032280;28;20488;-69
2023/03/26 01:00:38;;;;;;;4.03;1.30;;;8.30;99.90;;;;;;5051661;28;20457;-71
2023/03/26 01:03:05;;;;;;;6.03;1.40;;;8.10;99.90;;;;;;5037684;28;20541;-68
2023/03/26 01:05:34;;;;;;;4.03;1.37;;;8.10;99.90;;;;;;5033723;28;20517;-69
2023/03/26 01:08:13;;;;;;;1.50;1.10;;;8.20;99.90;;;;;;5003335;28;20568;-69
2023/03/26 01:10:49;;;;;;;5.30;1.90;;;8.20;99.90;;;;;;5030496;28;20500;-70
2023/03/26 01:13:20;;;;;;;3.37;2.23;;;8.30;99.90;;;;;;5015497;28;20453;-70
2023/03/26 01:15:51;;;;;;;2.40;1.10;;;8.40;99.90;;;;;;5014553;28;20477;-70
2023/03/26 01:18:25;;;;;;;2.40;1.20;;;8.40;99.90;;;;;;5026741;28;20477;-69
2023/03/26 01:20:57;;;;;;;2.03;1.30;;;8.30;99.90;;;;;;5031936;28;20469;-69
2023/03/26 01:23:30;;;;;;;1.73;1.10;;;8.30;99.90;;;;;;5023679;28;20458;-69
2023/03/26 01:26:11;;;;;;;6.47;1.70;;;8.20;99.90;;;;;;5014538;28;20485;-68
2023/03/26 01:28:40;;;;;;;4.27;1.83;;;8.30;99.90;;;;;;5029581;28;20451;-69
2023/03/26 01:31:20;;;;;;;2.33;1.00;;;8.30;99.90;;;;;;5013382;28;20461;-68
2023/03/26 01:34:11;;;;;;;1.47;1.37;;;8.40;99.90;;;;;;5039971;28;20456;-70
2023/03/26 01:36:54;;;;;;;4.80;1.00;;;8.30;99.90;;;;;;5029142;28;20964;-70
2023/03/26 01:39:48;;;;;;;2.23;1.13;;;8.10;99.90;;;;;;5043085;28;20502;-69
2023/03/26 01:42:23;;;;;;;2.27;1.73;;;8.20;99.90;;;;;;5026999;28;20452;-71
2023/03/26 01:44:52;;;;;;;8.33;1.60;;;8.10;99.90;;;;;;5018461;28;20486;-70
2023/03/26 01:47:19;;;;;;;4.13;1.33;;;8.00;99.90;;;;;;4995875;28;20502;-70
2023/03/26 01:49:45;;;;;;;1.50;1.17;;;8.10;99.90;;;;;;4996801;28;21127;-70
2023/03/26 01:52:15;;;;;;;1.47;1.30;;;8.10;99.90;;;;;;4998086;28;20480;-70
2023/03/26 01:54:41;;;;;;;6.43;1.20;;;8.10;99.90;;;;;;5035167;28;20798;-69
2023/03/26 01:58:05;;;;;;;2.00;0.90;;;8.20;99.90;;;;;;5029738;28;20536;-70
2023/03/26 02:00:38;;;;;;;3.10;1.07;;;8.30;99.90;;;;;;4995234;28;21066;-70
2023/03/26 02:03:20;;;;;;;6.47;1.37;;;8.40;99.90;;;;;;5031201;28;20455;-69
2023/03/26 02:05:57;;;;;;;2.40;1.53;;;8.50;99.90;;;;;;5048433;28;20450;-68
2023/03/26 02:08:36;;;;;;;3.30;1.60;;;8.40;99.90;;;;;;5015117;28;20503;-70
2023/03/26 02:11:11;;;;;;;4.30;0.77;;;8.50;99.90;;;;;;5015795;28;20465;-69
2023/03/26 02:13:39;;;;;;;2.40;1.27;;;8.60;99.90;;;;;;5053473;28;20467;-70
2023/03/26 02:16:08;;;;;;;2.00;1.00;;;8.60;99.90;;;;;;5021163;28;20545;-71
2023/03/26 02:18:37;;;;;;;5.10;1.83;;;8.70;99.90;;;;;;5020249;28;20476;-71
2023/03/26 02:21:04;;;;;;;4.27;1.47;;;8.70;99.90;;;;;;5046875;28;20517;-69
2023/03/26 02:23:34;;;;;;;1.90;1.30;;;8.70;99.90;;;;;;5004784;28;20447;-69
2023/03/26 02:26:04;;;;;;;1.63;1.10;;;8.70;99.90;;;;;;5025263;28;20454;-69
2023/03/26 02:28:30;;;;;;;3.53;1.40;;;8.70;99.90;;;;;;5010525;28;20454;-70
2023/03/26 02:31:00;;;;;;;4.37;1.40;;;8.80;99.90;;;;;;5031847;28;20455;-69
2023/03/26 02:33:30;;;;;;;2.70;1.40;;;8.80;99.90;;;;;;5029843;28;20451;-70
2023/03/26 02:36:00;;;;;;;4.50;1.63;;;8.80;99.90;;;;;;5031284;28;20624;-70
2023/03/26 02:38:34;;;;;;;3.67;1.47;;;8.80;99.90;;;;;;5029866;28;20476;-70
2023/03/26 02:41:02;;;;;;;4.23;1.03;;;8.80;99.90;;;;;;5024612;28;20449;-70
2023/03/26 02:43:39;;;;;;;5.50;1.67;;;8.80;99.90;;;;;;5012187;28;20455;-70
2023/03/26 02:46:08;;;;;;;2.37;1.50;;;8.80;99.90;;;;;;5007620;28;20466;-69
2023/03/26 02:48:49;;;;;;;4.40;1.37;;;8.80;99.90;;;;;;5028802;28;20508;-70
2023/03/26 02:51:21;;;;;;;1.70;1.33;;;8.80;99.90;;;;;;5023186;28;20515;-71
2023/03/26 02:54:01;;;;;;;3.70;1.30;;;8.80;99.90;;;;;;5046963;28;20477;-71
2023/03/26 02:56:45;;;;;;;4.03;1.57;;;8.80;99.90;;;;;;5038096;28;20901;-69
2023/03/26 02:59:40;;;;;;;1.27;1.13;;;8.70;99.90;;;;;;4963802;28;20476;-70
2023/03/26 03:02:28;;;;;;;2.77;1.80;;;8.80;99.90;;;;;;4992360;28;20521;-70
2023/03/26 03:05:00;;;;;;;1.33;1.17;;;8.80;99.90;;;;;;5015122;28;20459;-70
2023/03/26 03:07:28;;;;;;;7.80;1.53;;;8.80;99.90;;;;;;5003630;28;20528;-72
2023/03/26 03:09:54;;;;;;;1.50;1.40;;;8.80;99.90;;;;;;4996797;28;20468;-70
2023/03/26 03:12:40;;;;;;;5.23;1.57;;;8.80;99.90;;;;;;5049730;28;20464;-70
2023/03/26 03:15:06;;;;;;;7.60;1.63;;;8.80;99.90;;;;;;5029364;28;20466;-69
2023/03/26 03:17:32;;;;;;;2.50;1.23;;;8.90;99.90;;;;;;5029633;28;20532;-70
2023/03/26 03:19:58;;;;;;;4.77;1.60;;;8.90;99.90;;;;;;5027887;28;20517;-70
2023/03/26 03:22:24;;;;;;;3.40;1.20;;;8.90;99.90;;;;;;5060381;28;20255;-70
2023/03/26 03:24:56;;;;;;;1.63;1.40;;;8.90;99.90;;;;;;5013599;28;20470;-69
2023/03/26 03:27:24;;;;;;;6.30;1.60;;;8.90;99.90;;;;;;5024389;28;20218;-68
2023/03/26 03:29:59;;;;;;;1.63;1.20;;;8.90;99.90;;;;;;5006179;28;20463;-70
2023/03/26 03:32:48;;;;;;;8.13;1.53;;;8.80;99.90;;;;;;5028184;28;20472;-70
2023/03/26 03:35:18;;;;;;;2.40;1.23;;;8.80;99.90;;;;;;5020123;28;20458;-70
2023/03/26 03:37:48;;;;;;;1.13;1.00;;;8.80;99.90;;;;;;5012429;28;20458;-69
2023/03/26 03:40:14;;;;;;;4.63;1.90;;;8.80;99.90;;;;;;5014366;28;20545;-70
2023/03/26 03:42:40;;;;;;;3.57;1.23;;;8.90;99.90;;;;;;5029494;28;20211;-70
2023/03/26 03:45:07;;;;;;;2.37;1.03;;;8.90;99.90;;;;;;5030317;28;20465;-69
2023/03/26 03:47:55;;;;;;;3.23;1.63;;;8.90;99.90;;;;;;5027945;28;20888;-70
2023/03/26 03:50:28;;;;;;;6.80;1.50;;;8.90;99.90;;;;;;5031886;28;20530;-70
2023/03/26 03:53:21;;;;;;;3.67;1.47;;;8.90;99.90;;;;;;5038301;28;20889;-71
2023/03/26 03:55:52;;;;;;;3.77;1.60;;;8.90;99.90;;;;;;5030369;28;20458;-71
2023/03/26 03:58:21;;;;;;;6.27;1.50;;;8.90;99.90;;;;;;5013007;28;20474;-70
2023/03/26 04:00:52;;;;;;;3.90;1.70;;;8.90;99.90;;;;;;5030287;28;20494;-71
2023/03/26 04:03:44;;;;;;;1.80;1.10;;;8.80;99.90;;;;;;5019466;28;20462;-70
2023/03/26 04:06:12;;;;;;;2.53;1.13;;;8.70;99.90;;;;;;5012623;28;20552;-70
2023/03/26 04:08:38;;;;;;;3.23;1.40;;;8.80;99.90;;;;;;5013745;28;20469;-70
2023/03/26 04:11:05;;;;;;;5.53;1.60;;;8.70;99.90;;;;;;5062923;28;20834;-70
2023/03/26 04:13:51;;;;;;;3.27;1.50;;;8.80;99.90;;;;;;4958243;28;20547;-70
2023/03/26 04:16:25;;;;;;;2.60;1.57;;;8.80;99.90;;;;;;5000044;28;20461;-70
2023/03/26 04:18:50;;;;;;;3.20;1.60;;;8.80;99.90;;;;;;5028179;28;20465;-70
2023/03/26 04:21:18;;;;;;;2.83;1.23;;;8.80;99.90;;;;;;5003410;28;20265;-70
2023/03/26 04:23:44;;;;;;;6.77;1.60;;;8.80;99.90;;;;;;5030627;28;20467;-70
2023/03/26 04:26:46;;;;;;;7.40;1.83;;;8.80;99.90;;;;;;5049980;28;20553;-70
2023/03/26 04:29:15;;;;;;;4.73;1.80;;;8.80;99.90;;;;;;5019352;28;20453;-70
2023/03/26 04:31:41;;;;;;;4.30;1.33;;;8.90;99.90;;;;;;5016713;28;20455;-69
2023/03/26 04:34:23;;;;;;;4.57;1.60;;;8.80;99.90;;;;;;5034719;28;20532;-70
2023/03/26 04:37:04;;;;;;;1.40;0.90;;;8.80;99.90;;;;;;5036080;28;20451;-68
2023/03/26 04:39:35;;;;;;;4.03;1.50;;;8.80;99.90;;;;;;5036537;28;20477;-70
2023/03/26 04:42:19;;;;;;;2.47;1.30;;;8.80;99.90;;;;;;5039315;28;20542;-70
2023/03/26 04:44:58;;;;;;;7.80;2.00;;;8.90;99.90;;;;;;5031395;28;20465;-69
2023/03/26 04:47:24;;;;;;;5.03;1.50;;;8.90;99.90;;;;;;5019815;28;20501;-70
2023/03/26 04:49:50;;;;;;;4.87;1.47;;;8.90;99.90;;;;;;5051008;28;20903;-70
2023/03/26 04:52:16;;;;;;;3.90;1.53;;;8.90;99.90;;;;;;5036543;28;20216;-70
2023/03/26 04:55:41;;;;;;;2.03;1.50;;;8.90;99.90;;;;;;5051086;28;20515;-69
2023/03/26 04:58:15;;;;;;;4.90;1.03;;;8.90;99.90;;;;;;5032537;28;20462;-70
2023/03/26 05:01:02;;;;;;;2.60;1.10;;;8.90;99.90;;;;;;5033687;28;20521;-70
2023/03/26 05:03:31;;;;;;;1.63;1.33;;;8.80;99.90;;;;;;5037052;28;20481;-70
2023/03/26 05:06:01;;;;;;;1.40;1.30;;;8.80;99.90;;;;;;5035971;28;20479;-71
2023/03/26 05:08:28;;;;;;;2.20;1.20;;;8.80;99.90;;;;;;5019530;28;20510;-69
2023/03/26 05:10:55;;;;;;;3.63;1.60;;;8.80;99.90;;;;;;4999788;28;20608;-70
2023/03/26 05:13:28;;;;;;;4.90;1.70;;;8.80;99.90;;;;;;5017213;28;20450;-70
2023/03/26 05:15:55;;;;;;;3.90;1.63;;;8.80;99.90;;;;;;5035046;28;20467;-69
2023/03/26 05:18:32;;;;;;;5.63;1.23;;;8.80;99.90;;;;;;5016583;28;20462;-70
2023/03/26 05:20:59;;;;;;;2.37;1.43;;;8.70;99.90;;;;;;5033632;28;20461;-69
2023/03/26 05:23:26;;;;;;;5.30;1.50;;;8.70;99.90;;;;;;5035874;28;20457;-69
2023/03/26 05:26:08;;;;;;;3.17;1.33;;;8.70;99.90;;;;;;5030281;28;21009;-70
2023/03/26 05:28:35;;;;;;;4.73;1.40;;;8.70;99.90;;;;;;5025534;28;20453;-69
2023/03/26 05:31:09;;;;;;;5.37;1.50;;;8.80;99.90;;;;;;5032681;28;20462;-69
2023/03/26 05:33:38;;;;;;;3.60;1.20;;;8.80;99.90;;;;;;5033660;28;20457;-69
2023/03/26 05:36:12;;;;;;;5.60;1.27;;;8.90;99.90;;;;;;5016981;28;20485;-70
2023/03/26 05:38:38;;;;;;;2.43;1.00;;;8.90;99.90;;;;;;5032718;28;20699;-68
2023/03/26 05:41:08;;;;;;;2.60;1.67;;;8.90;99.90;;;;;;5016870;28;20545;-69
2023/03/26 05:43:38;;;;;;;2.53;1.50;;;8.90;99.90;;;;;;5033682;28;20797;-70
2023/03/26 05:46:11;;;;;;;2.03;1.20;;;8.90;99.90;;;;;;5015374;28;20473;-68
2023/03/26 05:48:37;;;;;;;2.97;1.70;;;8.90;99.90;;;;;;5029434;28;20529;-69
2023/03/26 05:51:03;;;;;;;5.97;2.03;;;8.90;99.90;;;;;;5015666;28;20528;-68
2023/03/26 05:53:31;;;;;;;1.73;1.20;;;8.90;99.90;;;;;;5033107;28;20446;-68
2023/03/26 05:56:15;;;;;;;3.70;1.70;;;8.90;99.90;;;;;;5035259;28;20546;-69
2023/03/26 05:59:14;;;;;;;2.10;1.70;;;8.90;99.90;;;;;;5003410;28;20473;-70
2023/03/26 06:02:12;;;;;;;6.40;1.50;;;8.90;99.90;;;;;;4984730;28;20478;-69
2023/03/26 06:04:41;;;;;;;3.53;1.60;;;8.90;99.90;;;;;;5048845;28;20480;-68
2023/03/26 06:07:32;;;;;;;6.20;1.77;;;8.90;99.90;;;;;;5025579;28;20310;-69
2023/03/26 06:10:17;;;;;;;3.67;1.67;;;8.70;99.90;;;;;;5022192;28;20856;-70
2023/03/26 06:12:43;;;;;;;2.60;1.40;;;8.70;99.90;;;;;;5032022;28;20480;-69
2023/03/26 06:15:09;;;;;;;3.07;1.60;;;8.80;99.90;;;;;;5014055;28;21013;-70
2023/03/26 06:17:45;;;;;;;7.93;2.73;;;8.80;99.90;;;;;;5018611;28;20216;-69
2023/03/26 06:20:41;;;;;;;5.50;2.10;;;8.80;99.90;;;;;;5016050;28;20447;-69
2023/03/26 06:23:16;;;;;;;3.30;1.83;;;8.70;99.90;;;;;;5030928;28;20513;-70
2023/03/26 06:26:01;;;;;;;5.53;1.70;;;8.80;99.90;;;;;;5016177;28;21007;-70
2023/03/26 06:28:42;;;;;;;2.30;1.60;;;8.90;99.90;;;;;;5049198;28;20460;-68
2023/03/26 06:31:23;;;;;;;1.57;1.10;;;8.90;99.90;;;;;;5026781;28;20452;-69
2023/03/26 06:33:53;;;;;;;6.00;2.30;;;8.90;99.90;;;;;;5017438;28;20450;-70
2023/03/26 06:36:19;;;;;;;3.10;1.83;;;8.90;99.90;;;;;;5029187;28;20470;-70
2023/03/26 06:38:47;;;;;;;5.83;2.03;;;9.00;99.90;;;;;;5012089;28;20224;-69
2023/03/26 06:41:13;;;;;;;6.63;2.70;;;9.00;99.90;;;;;;5015840;28;20439;-71
2023/03/26 06:43:55;;;;;;;3.90;2.47;;;9.00;99.90;;;;;;5027493;28;20211;-70
2023/03/26 06:46:59;;;;;;;10.10;4.03;;;8.90;99.90;;;;;;5045231;28;20477;-69
2023/03/26 06:50:00;;;;;;;4.20;2.80;;;9.00;99.90;;;;;;4972464;28;20545;-70
2023/03/26 06:52:33;;;;;;;6.53;2.37;;;8.90;99.90;;;;;;5021659;28;20446;-70
2023/03/26 06:55:17;;;;;;;6.30;2.10;;;9.00;99.90;;;;;;5048981;28;20512;-69
2023/03/26 06:57:47;;;;;;;3.80;1.60;;;8.90;99.90;;;;;;5046588;28;20486;-70
2023/03/26 07:00:14;;;;;;;4.30;2.27;;;8.90;99.90;;;;;;5048977;28;20236;-71
2023/03/26 07:03:06;;;;;;;4.07;1.63;;;9.00;99.90;;;;;;5044602;28;20478;-71
2023/03/26 07:06:04;;;;;;;2.80;1.60;;;9.00;99.90;;;;;;4997563;28;20601;-70
2023/03/26 07:08:49;;;;;;;6.80;1.90;;;9.00;99.90;;;;;;5036343;28;20462;-69
2023/03/26 07:11:32;;;;;;;7.83;1.87;;;9.00;99.90;;;;;;5045417;28;20537;-69
2023/03/26 07:14:17;;;;;;;6.83;2.67;;;9.00;99.90;;;;;;5054371;28;20457;-70
2023/03/26 07:16:42;;;;;;;7.00;3.80;;;9.00;99.90;;;;;;5049143;28;20835;-70
2023/03/26 07:19:28;;;;;;;6.47;4.70;;;9.00;99.90;;;;;;4983128;28;20230;-70
2023/03/26 07:21:55;;;;;;;9.43;5.80;;;9.00;99.90;;;;;;5028330;28;20455;-70
2023/03/26 07:24:40;;;;;;;15.47;7.17;;;9.10;99.90;;;;;;5026372;28;20213;-70
2023/03/26 07:27:40;;;;;;;8.20;5.43;;;9.00;99.90;;;;;;4996920;28;20478;-71
2023/03/26 07:30:12;;;;;;;7.23;4.63;;;9.10;99.90;;;;;;5028838;28;20573;-69
2023/03/26 07:33:00;;;;;;;6.37;4.00;;;9.10;99.90;;;;;;5042608;28;20482;-69
2023/03/26 07:35:49;;;;;;;5.23;3.17;;;9.10;99.90;;;;;;5028015;28;20474;-70
2023/03/26 07:38:36;;;;;;;2.53;1.70;;;9.10;99.90;;;;;;5029445;28;20508;-71
2023/03/26 07:41:39;;;;;;;3.17;2.23;;;9.10;99.90;;;;;;5040361;28;20505;-71
2023/03/26 07:44:55;;;;;;;4.23;2.07;;;9.10;99.90;;;;;;5023457;28;20516;-70
2023/03/26 07:47:41;;;;;;;2.97;1.60;;;9.10;99.90;;;;;;5005949;28;20448;-69
2023/03/26 07:50:15;;;;;;;3.00;1.50;;;9.10;99.90;;;;;;5042680;28;20467;-71
2023/03/26 07:53:01;;;;;;;1.80;1.50;;;9.10;99.90;;;;;;5013716;28;20485;-70
2023/03/26 07:55:51;;;;;;;2.30;1.60;;;9.10;99.90;;;;;;5026734;28;20463;-71
2023/03/26 07:59:09;;;;;;;4.67;1.77;;;9.10;99.90;;;;;;5000377;28;20565;-71
2023/03/26 08:02:19;;;;;;;6.40;1.73;;;9.10;99.90;;;;;;5039016;28;20843;-70
2023/03/26 08:05:18;;;;;;;6.83;1.80;;;9.10;99.90;;;;;;5027877;28;20457;-71
2023/03/26 08:08:08;;;;;;;3.60;2.30;;;9.10;99.90;;;;;;5030998;28;20986;-70
2023/03/26 08:10:57;;;;;;;5.43;2.30;;;9.10;99.90;;;;;;5015216;28;20450;-70
2023/03/26 08:13:49;;;;;;;3.20;2.03;;;9.10;99.90;;;;;;5026994;28;20438;-71
2023/03/26 08:16:39;;;;;;;3.37;2.30;;;9.10;99.90;;;;;;5046098;28;20450;-68
2023/03/26 08:19:06;;;;;;;2.30;1.43;;;9.10;99.90;;;;;;5002537;28;20477;-71
2023/03/26 08:21:43;;;;;;;5.83;1.83;;;9.00;99.90;;;;;;5030362;28;20457;-70
2023/03/26 08:24:18;;;;;;;2.70;1.67;;;9.00;99.90;;;;;;5043421;28;20461;-71
2023/03/26 08:26:54;;;;;;;5.07;1.77;;;9.00;99.90;;;;;;5029151;28;20464;-71
2023/03/26 08:29:28;;;;;;;2.07;1.50;;;9.00;99.90;;;;;;5004858;28;20450;-69
2023/03/26 08:31:56;;;;;;;3.80;1.20;;;9.10;99.90;;;;;;5022930;28;21067;-70
2023/03/26 08:34:22;;;;;;;4.03;1.10;;;8.90;99.90;;;;;;5028010;28;20523;-71
2023/03/26 08:36:48;;;;;;;1.50;1.00;;;8.90;99.90;;;;;;5044313;28;20492;-71
2023/03/26 08:39:14;;;;;;;2.87;1.20;;;9.00;99.90;;;;;;5034219;28;20457;-71
2023/03/26 08:42:09;;;;;;;4.57;1.40;;;8.90;99.90;;;;;;5047559;28;20778;-70
2023/03/26 08:45:17;;;;;;;2.50;1.10;;;8.90;99.90;;;;;;5032238;28;20277;-71
2023/03/26 08:47:54;;;;;;;1.20;1.07;;;8.90;99.90;;;;;;5016808;28;20484;-70
2023/03/26 08:50:44;;;;;;;2.40;1.10;;;8.90;99.90;;;;;;5029334;28;20463;-71
2023/03/26 08:53:25;;;;;;;3.63;1.27;;;8.80;99.90;;;;;;5044283;28;20465;-70
2023/03/26 08:56:00;;;;;;;2.50;1.13;;;8.90;99.90;;;;;;5028130;28;20468;-69
2023/03/26 08:58:41;;;;;;;3.30;1.17;;;9.00;99.90;;;;;;5018268;28;20549;-70
2023/03/26 09:01:25;;;;;;;3.80;1.07;;;9.00;99.90;;;;;;5027824;28;20482;-69
2023/03/26 09:04:15;;;;;;;2.37;1.00;;;9.10;99.90;;;;;;5029404;28;20457;-70
2023/03/26 09:07:17;;;;;;;2.50;1.60;;;9.00;99.90;;;;;;5013821;28;20554;-70
2023/03/26 09:10:07;;;;;;;2.83;2.07;;;9.00;99.90;;;;;;4995286;28;20444;-69
2023/03/26 09:13:10;;;;;;;5.93;2.20;;;9.00;99.90;;;;;;5037953;28;20503;-69
2023/03/26 09:16:24;;;;;;;8.17;2.40;;;9.00;99.90;;;;;;5021670;28;20469;-70
2023/03/26 09:19:15;;;;;;;5.13;2.40;;;9.00;99.90;;;;;;5016378;28;20561;-70
2023/03/26 09:22:10;;;;;;;2.27;1.43;;;9.10;99.90;;;;;;5030525;28;20469;-70
2023/03/26 09:24:53;;;;;;;1.10;1.00;;;9.10;99.90;;;;;;5018718;28;21037;-70
2023/03/26 09:27:46;;;;;;;3.10;1.30;;;9.10;99.90;;;;;;5026761;28;20443;-70
2023/03/26 09:30:15;;;;;;;2.70;1.40;;;9.20;99.90;;;;;;5043424;28;20458;-69
2023/03/26 09:33:19;;;;;;;3.90;1.40;;;9.20;99.90;;;;;;5048904;28;20446;-70
2023/03/26 09:36:09;;;;;;;2.40;0.90;;;9.10;99.90;;;;;;5044359;28;20477;-70
2023/03/26 09:38:42;;;;;;;1.30;1.10;;;9.10;99.90;;;;;;4993690;28;20531;-70
2023/03/26 09:41:31;;;;;;;1.57;1.30;;;9.10;99.90;;;;;;5021161;28;20868;-70
2023/03/26 09:44:31;;;;;;;3.60;1.50;;;9.20;99.90;;;;;;5036389;28;21006;-69
2023/03/26 09:47:08;;;;;;;1.63;1.43;;;9.30;99.90;;;;;;5031087;28;20957;-72
2023/03/26 09:49:55;;;;;;;3.47;1.77;;;9.30;99.90;;;;;;5032097;28;20858;-71
2023/03/26 09:52:37;;;;;;;1.73;1.00;;;9.30;99.90;;;;;;5050128;28;20453;-69
2023/03/26 09:55:27;;;;;;;2.73;1.00;;;9.40;99.90;;;;;;5014118;28;20474;-70
2023/03/26 09:57:57;;;;;;;2.43;1.30;;;9.50;99.90;;;;;;5044054;28;21036;-70
2023/03/26 10:01:07;;;;;;;2.17;1.10;;;9.70;99.90;;;;;;5024549;28;20984;-68
2023/03/26 10:03:33;;;;;;;1.37;0.83;;;9.80;99.90;;;;;;5025374;28;20476;-69
2023/03/26 10:06:20;;;;;;;4.33;1.30;;;10.10;99.90;;;;;;5036876;28;20466;-68
2023/03/26 10:09:18;;;;;;;1.10;1.00;;;10.10;99.90;;;;;;5054026;28;20481;-69
2023/03/26 10:11:47;;;;;;;0.90;0.90;;;10.30;99.90;;;;;;4987633;28;21002;-68
2023/03/26 10:14:22;;;;;;;1.60;0.90;;;10.40;99.90;;;;;;5018426;28;20463;-70
2023/03/26 10:17:01;;;;;;;5.27;1.53;;;10.50;99.90;;;;;;5049090;28;20544;-70
2023/03/26 10:20:16;;;;;;;1.07;0.90;;;10.40;99.90;;;;;;5055289;28;20467;-70
2023/03/26 10:22:58;;;;;;;3.73;1.43;;;10.50;99.90;;;;;;5023825;28;20475;-69
2023/03/26 10:25:50;;;;;;;1.33;1.00;;;10.50;99.90;;;;;;5030448;28;20451;-68
2023/03/26 10:28:34;;;;;;;4.60;1.33;;;10.60;99.90;;;;;;5049813;28;20993;-70
2023/03/26 10:30:59;;;;;;;0.93;0.93;;;10.60;99.90;;;;;;5051434;28;20553;-69
2023/03/26 10:33:51;;;;;;;1.43;1.00;;;10.60;99.90;;;;;;5019192;28;20645;-70
2023/03/26 10:36:34;;;;;;;2.97;1.20;;;10.60;99.90;;;;;;5049118;28;20221;-67
2023/03/26 10:39:30;;;;;;;1.77;1.20;;;10.60;99.90;;;;;;5027938;28;20471;-70
2023/03/26 10:42:14;;;;;;;1.60;1.33;;;10.60;99.90;;;;;;5048009;28;20601;-69
2023/03/26 10:45:10;;;;;;;2.70;1.40;;;10.50;99.90;;;;;;5011502;28;20908;-70
2023/03/26 10:47:39;;;;;;;1.40;1.10;;;10.50;99.90;;;;;;5048618;28;20995;-68
2023/03/26 10:50:10;;;;;;;1.23;1.10;;;10.50;99.90;;;;;;5032381;28;20467;-70
2023/03/26 10:52:52;;;;;;;2.80;1.37;;;10.40;99.90;;;;;;5010759;28;20462;-70
2023/03/26 10:55:25;;;;;;;1.33;1.17;;;10.40;99.90;;;;;;5030898;28;20465;-69
2023/03/26 10:58:09;;;;;;;1.27;1.17;;;10.40;99.90;;;;;;5046913;28;20463;-68
2023/03/26 11:00:41;;;;;;;2.10;0.97;;;10.40;99.90;;;;;;5042034;28;20454;-69
2023/03/26 11:03:40;;;;;;;2.43;1.23;;;10.40;99.90;;;;;;5030124;28;20494;-69
2023/03/26 11:06:10;;;;;;;3.73;1.37;;;10.50;99.90;;;;;;5013740;28;20470;-68
2023/03/26 11:08:42;;;;;;;2.07;1.50;;;10.60;99.90;;;;;;5014329;28;20450;-68
2023/03/26 11:11:38;;;;;;;0.87;0.87;;;10.80;99.90;;;;;;5018666;28;20462;-69
2023/03/26 11:14:09;;;;;;;0.80;0.80;;;10.80;99.90;;;;;;5048737;28;20533;-69
2023/03/26 11:17:15;;;;;;;3.60;1.17;;;10.90;99.90;;;;;;5010278;28;20472;-70
2023/03/26 11:19:46;;;;;;;1.80;1.30;;;11.10;99.90;;;;;;5023650;28;20467;-72
2023/03/26 11:22:40;;;;;;;1.63;1.40;;;11.40;99.90;;;;;;5029685;28;20495;-71
2023/03/26 11:25:26;;;;;;;2.47;1.70;;;11.50;99.90;;;;;;5030254;28;20472;-70
2023/03/26 11:28:17;;;;;;;1.13;1.10;;;11.50;99.90;;;;;;5046661;28;20534;-70
2023/03/26 11:31:00;;;;;;;2.27;1.40;;;11.50;99.90;;;;;;5041352;28;20461;-70
2023/03/26 11:33:36;;;;;;;1.40;1.30;;;11.70;99.90;;;;;;5012289;28;20449;-71
2023/03/26 11:36:06;;;;;;;2.43;1.40;;;12.00;99.90;;;;;;5035778;28;20470;-71
2023/03/26 11:38:36;;;;;;;1.10;1.10;;;12.10;99.90;;;;;;5005094;28;20479;-68
2023/03/26 11:41:10;;;;;;;1.00;0.90;;;12.30;99.90;;;;;;5017162;28;20456;-71
2023/03/26 11:43:57;;;;;;;0.93;0.70;;;12.30;99.90;;;;;;4992390;28;20453;-69
2023/03/26 11:46:29;;;;;;;0.50;0.50;;;12.20;99.90;;;;;;5026058;28;20458;-68
2023/03/26 11:48:58;;;;;;;0.40;0.40;;;12.20;99.90;;;;;;5046258;28;20453;-67
2023/03/26 11:51:33;;;;;;;5.13;0.80;;;12.10;99.90;;;;;;5058923;28;20476;-68
2023/03/26 11:54:00;;;;;;;2.10;0.83;;;11.90;99.90;;;;;;5028804;28;20468;-69
2023/03/26 11:56:48;;;;;;;0.70;0.50;;;11.80;99.90;;;;;;5012117;28;20562;-68
2023/03/26 11:59:15;;;;;;;1.77;0.60;;;11.90;99.90;;;;;;5006849;28;20477;-70
2023/03/26 12:01:51;;;;;;;0.50;0.50;;;11.90;99.90;;;;;;5027631;28;20545;-71
2023/03/26 12:04:23;;;;;;;1.00;0.70;;;11.90;99.90;;;;;;5027943;28;20511;-70
2023/03/26 12:06:51;;;;;;;0.40;0.37;;;12.00;99.90;;;;;;5010806;28;20469;-70
2023/03/26 12:09:18;;;;;;;0.77;0.60;;;12.10;99.90;;;;;;5028377;28;20534;-70
2023/03/26 12:11:48;;;;;;;0.87;0.50;;;12.10;99.90;;;;;;5011442;28;20457;-69
2023/03/26 12:14:20;;;;;;;1.17;0.70;;;12.10;99.90;;;;;;5009899;28;20524;-69
2023/03/26 12:17:04;;;;;;;0.60;0.60;;;12.30;99.90;;;;;;5011673;28;20455;-71
2023/03/26 12:19:39;;;;;;;0.50;0.50;;;12.50;99.90;;;;;;5040484;28;20481;-71
2023/03/26 12:22:26;;;;;;;0.90;0.73;;;12.60;99.90;;;;;;5046069;28;20548;-71
2023/03/26 12:25:16;;;;;;;1.63;0.50;;;12.90;99.90;;;;;;5011809;28;20515;-71
2023/03/26 12:27:57;;;;;;;0.87;0.80;;;13.10;99.90;;;;;;5024515;28;20595;-71
2023/03/26 12:30:25;;;;;;;2.93;0.60;;;13.20;99.90;;;;;;5033147;28;20511;-69
2023/03/26 12:33:02;;;;;;;1.17;0.73;;;13.20;99.90;;;;;;5033206;28;20462;-70
2023/03/26 12:35:30;;;;;;;0.50;0.50;;;13.20;99.90;;;;;;5027139;28;20468;-71
2023/03/26 12:38:23;;;;;;;2.83;0.60;;;13.20;99.90;;;;;;5017148;28;20500;-70
2023/03/26 12:41:15;;;;;;;3.77;0.80;;;13.30;99.90;;;;;;5037633;28;20463;-71
2023/03/26 12:43:46;;;;;;;1.17;0.83;;;13.40;99.90;;;;;;5046206;28;20455;-71
2023/03/26 12:46:26;;;;;;;1.27;0.90;;;13.50;99.90;;;;;;5027506;28;20487;-71
2023/03/26 12:48:54;;;;;;;1.90;0.87;;;13.70;99.90;;;;;;5025378;28;20461;-71
2023/03/26 12:51:33;;;;;;;1.40;0.70;;;13.70;99.90;;;;;;5007251;28;20534;-71
2023/03/26 12:54:22;;;;;;;1.73;0.90;;;13.70;99.90;;;;;;5020913;28;20451;-70
2023/03/26 12:57:19;;;;;;;0.60;0.60;;;13.90;99.90;;;;;;5032651;28;20458;-72
2023/03/26 13:00:11;;;;;;;1.13;0.73;;;13.90;99.90;;;;;;5019599;28;20617;-71
2023/03/26 13:03:04;;;;;;;0.73;0.73;;;14.10;99.90;;;;;;5036487;28;20556;-70
2023/03/26 13:05:56;;;;;;;0.70;0.70;;;14.00;99.90;;;;;;5024532;28;20468;-71
2023/03/26 13:08:43;;;;;;;3.23;0.90;;;13.90;99.90;;;;;;5038843;28;20548;-69
2023/03/26 13:11:31;;;;;;;5.60;0.87;;;13.60;99.90;;;;;;5032892;28;20449;-69
2023/03/26 13:14:15;;;;;;;0.83;0.60;;;13.30;99.90;;;;;;5042156;28;20465;-69
2023/03/26 13:16:50;;;;;;;1.57;0.50;;;13.20;99.90;;;;;;5032301;28;20472;-70
2023/03/26 13:19:40;;;;;;;1.50;0.60;;;13.30;99.90;;;;;;5027126;28;21025;-69
2023/03/26 13:22:30;;;;;;;1.17;0.73;;;13.40;99.90;;;;;;5011845;28;20462;-70
2023/03/26 13:25:18;;;;;;;0.97;0.80;;;13.40;99.90;;;;;;5012628;28;20490;-71
2023/03/26 13:28:25;;;;;;;0.60;0.60;;;13.40;99.90;;;;;;5023584;28;20645;-69
2023/03/26 13:31:12;;;;;;;2.50;0.60;;;13.30;99.90;;;;;;4964399;28;20456;-70
2023/03/26 13:33:48;;;;;;;1.90;0.87;;;13.10;99.90;;;;;;5029302;28;20572;-70
2023/03/26 13:36:36;;;;;;;1.13;0.50;;;13.10;99.90;;;;;;5038472;28;20481;-70
2023/03/26 13:39:20;;;;;;;1.33;0.70;;;13.00;99.90;;;;;;5042039;28;20479;-70
2023/03/26 13:42:15;;;;;;;0.60;0.60;;;13.10;99.90;;;;;;5040216;28;20525;-70
2023/03/26 13:44:49;;;;;;;2.63;0.90;;;13.30;99.90;;;;;;5032443;28;21052;-70
2023/03/26 13:47:17;;;;;;;1.60;0.80;;;13.40;99.90;;;;;;5026422;28;20446;-68
2023/03/26 13:49:47;;;;;;;2.93;1.00;;;13.50;99.90;;;;;;5014773;28;20454;-69
2023/03/26 13:52:20;;;;;;;1.17;0.80;;;13.50;99.90;;;;;;5014050;28;21022;-70